»·PEaware :: N585C KONT-KBIH

N585C :: KONT-KBIH

FLIGHT INFORMATION

Flight Status: Arrived
Operator: Privately registered:
United States
More flights under this callsign
Pilot: Drew L. (13237)
Aircraft: BOMBARDIER BD-100 CHALLENGER 300
(CL30)
More flights by this aircraft type
Origin: KONT Ontario Intl
United States
Destination: KBIH Bishop
United States
More flights between these airports :: More routes between these airports
Route: SNSHN4 EHF J5 PINNI
File this flight plan on PilotEdge
Remarks: RMK / SIMBRIEF
Altitude:
(Current/Filed)
30,000ft
Speed:
(Current/Filed)
496kts
Departed: 14-Jul-20 08:47 AM
Arrived: 14-Jul-20 09:32 AM
Distance/Time
Traveled:
202nm/0:45
Distance/Time
To Go:
Arrived

Flight Plot

Page will automatically refresh every two minutes.


Map Options




Map Legend


Flown Route
Filed Route
Departure Airport
Arrival Airport
Navaid (VOR, NDB)
Fix

Horizontal Profiles

Position Reports

Time Latitude Longitude Heading Altitude Ground
Speed
14-Jul-20 08:35 34.051375 -117.600954 237 910ft 0kts
14-Jul-20 08:36 34.051375 -117.600954 237 910ft 0kts
14-Jul-20 08:37 34.051375 -117.600954 237 910ft 0kts
14-Jul-20 08:38 34.051375 -117.600954 237 910ft 0kts
14-Jul-20 08:39 34.051375 -117.600954 237 910ft 0kts
14-Jul-20 08:40 34.051375 -117.600954 237 910ft 0kts
14-Jul-20 08:41 34.051375 -117.600954 237 910ft 0kts
14-Jul-20 08:42 34.051780 -117.601389 352 912ft 9kts
14-Jul-20 08:42 34.053167 -117.602378 318 916ft 11kts
14-Jul-20 08:44 34.053859 -117.596561 89 917ft 18kts
14-Jul-20 08:45 34.053868 -117.589526 89 917ft 20kts
14-Jul-20 08:45 34.053863 -117.583747 89 918ft 12kts
14-Jul-20 08:47 34.054989 -117.583661 269 924ft 42kts
14-Jul-20 08:47 34.055196 -117.625384 274 3354ft 204kts
14-Jul-20 08:48 34.060502 -117.709674 285 7142ft 275kts
14-Jul-20 08:49 34.087711 -117.797257 309 7980ft 283kts
14-Jul-20 08:50 34.140375 -117.877246 303 12829ft 307kts
14-Jul-20 08:51 34.192849 -117.966238 304 17401ft 339kts
14-Jul-20 08:52 34.249067 -118.061777 304 21422ft 362kts
14-Jul-20 08:53 34.314250 -118.159092 311 24746ft 384kts
14-Jul-20 08:54 34.388525 -118.258714 311 27411ft 405kts
14-Jul-20 08:55 34.463566 -118.359351 311 30015ft 417kts
14-Jul-20 08:56 34.549028 -118.469141 325 29985ft 469kts
14-Jul-20 08:57 34.662466 -118.547025 330 30012ft 467kts
14-Jul-20 08:58 34.775887 -118.622419 330 30055ft 465kts
14-Jul-20 08:59 34.888004 -118.696935 330 30126ft 463kts
14-Jul-20 09:00 35.000792 -118.772093 329 30129ft 462kts
14-Jul-20 09:01 35.113801 -118.847680 329 30045ft 463kts
14-Jul-20 09:02 35.226668 -118.923399 329 29945ft 464kts
14-Jul-20 09:03 35.339591 -118.999391 330 29944ft 464kts
14-Jul-20 09:04 35.452412 -119.075553 330 29945ft 464kts
14-Jul-20 09:05 35.577774 -119.108867 352 29949ft 467kts
14-Jul-20 09:06 35.706650 -119.126363 352 29972ft 467kts
14-Jul-20 09:07 35.836040 -119.143479 352 29972ft 467kts
14-Jul-20 09:08 35.965357 -119.160585 352 29972ft 467kts
14-Jul-20 09:09 36.094395 -119.177704 352 29969ft 468kts
14-Jul-20 09:10 36.223951 -119.194944 352 29966ft 468kts
14-Jul-20 09:11 36.353547 -119.212250 352 29965ft 468kts
14-Jul-20 09:12 36.482610 -119.229544 352 29963ft 468kts
14-Jul-20 09:13 36.611920 -119.246928 352 29962ft 468kts
14-Jul-20 09:14 36.741159 -119.264342 353 29962ft 468kts
14-Jul-20 09:15 36.849353 -119.187212 48 29961ft 474kts
14-Jul-20 09:16 36.932444 -119.061173 50 27991ft 463kts
14-Jul-20 09:17 37.011525 -118.937348 50 25985ft 449kts
14-Jul-20 09:18 37.087722 -118.817351 50 23858ft 433kts
14-Jul-20 09:19 37.161095 -118.701297 50 21656ft 418kts
14-Jul-20 09:20 37.231729 -118.589179 51 19448ft 401kts
14-Jul-20 09:21 37.299503 -118.481246 51 17232ft 385kts
14-Jul-20 09:22 37.363988 -118.378226 51 15026ft 368kts
14-Jul-20 09:23 37.435018 -118.294885 12 12789ft 355kts
14-Jul-20 09:24 37.516545 -118.337991 311 10727ft 335kts
14-Jul-20 09:25 37.519168 -118.429929 207 10105ft 273kts
14-Jul-20 09:26 37.467901 -118.397984 124 9313ft 194kts
14-Jul-20 09:27 37.473481 -118.349649 7 7962ft 177kts
14-Jul-20 09:28 37.486592 -118.392331 217 7554ft 175kts
14-Jul-20 09:29 37.441933 -118.378729 151 6715ft 170kts
14-Jul-20 09:30 37.400817 -118.361057 177 4719ft 153kts
14-Jul-20 09:31 37.368318 -118.361772 194 4114ft 17kts
14-Jul-20 09:32 37.369483 -118.362054 314 4114ft 7kts
14-Jul-20 09:33 37.371782 -118.364923 306 4118ft 9kts
14-Jul-20 09:34 37.371463 -118.365450 135 4118ft 0kts
14-Jul-20 09:35 37.371463 -118.365450 135 4118ft 0kts
14-Jul-20 09:36 37.371463 -118.365450 135 4118ft 0kts
14-Jul-20 09:37 37.371463 -118.365450 135 4118ft 0kts
14-Jul-20 09:38 37.371463 -118.365450 135 4118ft 0kts

Navigation Log

Ident Type
Flight plan parsing failed, navigation log unavailable